createdAt,value
2023-04-02T00:01:19.618Z,98753.06
2023-04-02T00:04:16.533Z,98765.91
2023-04-02T00:06:47.212Z,98755.75
2023-04-02T00:09:31.615Z,98766.84
2023-04-02T00:12:00.502Z,98751.09
2023-04-02T00:14:31.295Z,98756.44
2023-04-02T00:17:01.654Z,98770.19
2023-04-02T00:19:36.536Z,98770.84
2023-04-02T00:22:07.822Z,98764.31
2023-04-02T00:24:35.793Z,98770.97
2023-04-02T00:27:03.745Z,98774.31
2023-04-02T00:29:31.189Z,98769.25
2023-04-02T00:31:59.399Z,98775.94
2023-04-02T00:34:31.975Z,98774.03
2023-04-02T00:37:00.794Z,98777.81
2023-04-02T00:39:33.251Z,98783.69
2023-04-02T00:42:06.995Z,98783.69
2023-04-02T00:44:38.465Z,98790.19
2023-04-02T00:47:15.089Z,98785.66
2023-04-02T00:49:43.587Z,98793.28
2023-04-02T00:52:14.643Z,98793.28
2023-04-02T00:54:45.840Z,98773.22
2023-04-02T00:57:18.050Z,98778.31
2023-04-02T00:59:55.246Z,98778.28
2023-04-02T01:02:32.233Z,98794.06
2023-04-02T01:05:01.071Z,98785.47
2023-04-02T01:08:02.456Z,98784.41
2023-04-02T01:10:44.745Z,98782.50
2023-04-02T01:13:23.432Z,98788.13
2023-04-02T01:15:59.870Z,98786.50
2023-04-02T01:18:37.929Z,98784.66
2023-04-02T01:21:22.024Z,98787.81
2023-04-02T01:24:04.444Z,98785.41
2023-04-02T01:26:46.232Z,98780.34
2023-04-02T01:29:16.949Z,98789.56
2023-04-02T01:31:46.347Z,98792.78
2023-04-02T01:34:16.812Z,98786.09
2023-04-02T01:37:05.079Z,98783.25
2023-04-02T01:39:45.143Z,98779.13
2023-04-02T01:42:19.173Z,98775.78
2023-04-02T01:44:50.837Z,98781.50
2023-04-02T01:47:22.091Z,98774.69
2023-04-02T01:49:49.558Z,98775.63
2023-04-02T01:52:19.593Z,98776.59
2023-04-02T01:54:47.925Z,98777.66
2023-04-02T01:57:16.780Z,98773.81
2023-04-02T01:59:44.803Z,98784.66
2023-04-02T02:02:15.219Z,98772.22
2023-04-02T02:04:44.567Z,98777.16
2023-04-02T02:07:15.242Z,98774.75
2023-04-02T02:09:46.000Z,98773.31
2023-04-02T02:12:15.504Z,98773.75
2023-04-02T02:14:47.005Z,98783.59
2023-04-02T02:17:18.295Z,98784.41
2023-04-02T02:19:49.044Z,98784.41
2023-04-02T02:22:24.265Z,98785.47
2023-04-02T02:24:52.142Z,98786.44
2023-04-02T02:27:53.298Z,98784.53
2023-04-02T02:30:27.191Z,98787.09
2023-04-02T02:33:03.265Z,98790.41
2023-04-02T02:35:37.454Z,98784.69
2023-04-02T02:38:42.875Z,98789.25
2023-04-02T02:41:21.815Z,98790.84
2023-04-02T02:43:59.208Z,98788.75
2023-04-02T02:46:29.491Z,98795.41
2023-04-02T02:49:02.489Z,98784.16
2023-04-02T02:51:38.763Z,98787.63
2023-04-02T02:54:07.959Z,98787.38
2023-04-02T02:56:42.082Z,98789.25
2023-04-02T02:59:12.381Z,98795.13
2023-04-02T03:01:43.395Z,98796.06
2023-04-02T03:04:12.519Z,98799.69
2023-04-02T03:06:41.020Z,98803.19
2023-04-02T03:09:18.713Z,98805.84
2023-04-02T03:11:55.002Z,98815.06
2023-04-02T03:14:32.786Z,98808.25
2023-04-02T03:17:10.170Z,98799.56
2023-04-02T03:19:45.893Z,98814.94
2023-04-02T03:22:19.642Z,98812.78
2023-04-02T03:24:57.601Z,98806.88
2023-04-02T03:27:30.198Z,98807.97
2023-04-02T03:30:22.073Z,98807.69
2023-04-02T03:32:53.397Z,98806.47
2023-04-02T03:35:29.039Z,98817.44
2023-04-02T03:38:02.188Z,98804.47
2023-04-02T03:40:34.607Z,98818.88
2023-04-02T03:43:06.618Z,98813.53
2023-04-02T03:45:39.377Z,98818.44
2023-04-02T03:48:12.877Z,98815.91
2023-04-02T03:50:47.964Z,98814.28
2023-04-02T03:53:15.520Z,98807.59
2023-04-02T03:55:43.910Z,98814.63
2023-04-02T03:58:20.750Z,98798.22
2023-04-02T04:00:53.360Z,98813.97
2023-04-02T04:03:25.807Z,98808.75
2023-04-02T04:05:59.634Z,98808.88
2023-04-02T04:08:34.185Z,98810.50
2023-04-02T04:11:07.849Z,98826.03
2023-04-02T04:13:43.104Z,98822.81
2023-04-02T04:16:15.174Z,98832.19
2023-04-02T04:18:51.965Z,98825.22
2023-04-02T04:21:30.290Z,98841.69
2023-04-02T04:24:20.410Z,98834.13
2023-04-02T04:26:55.857Z,98835.72
2023-04-02T04:29:45.748Z,98842.41
2023-04-02T04:32:27.620Z,98840.28
2023-04-02T04:35:04.990Z,98837.09
2023-04-02T04:37:38.617Z,98845.56
2023-04-02T04:40:17.700Z,98853.69
2023-04-02T04:42:48.689Z,98842.59
2023-04-02T04:45:30.620Z,98851.00
2023-04-02T04:48:01.759Z,98854.34
2023-04-02T04:50:34.646Z,98846.72
2023-04-02T04:53:08.443Z,98853.69
2023-04-02T04:55:39.323Z,98847.03
2023-04-02T04:58:18.322Z,98850.88
2023-04-02T05:00:55.427Z,98835.38
2023-04-02T05:03:31.383Z,98845.78
2023-04-02T05:06:04.432Z,98854.72
2023-04-02T05:08:39.139Z,98851.25
2023-04-02T05:11:13.429Z,98856.34
2023-04-02T05:13:45.192Z,98849.97
2023-04-02T05:16:18.936Z,98867.84
2023-04-02T05:18:52.632Z,98865.44
2023-04-02T05:21:26.536Z,98880.44
2023-04-02T05:24:02.896Z,98880.69
2023-04-02T05:26:34.058Z,98879.31
2023-04-02T05:29:18.627Z,98857.72
2023-04-02T05:31:54.797Z,98882.81
2023-04-02T05:34:27.060Z,98868.66
2023-04-02T05:36:55.806Z,98875.09
2023-04-02T05:39:27.214Z,98859.06
2023-04-02T05:42:02.835Z,98886.84
2023-04-02T05:44:55.693Z,98888.47
2023-04-02T05:47:28.047Z,98881.50
2023-04-02T05:50:18.307Z,98891.78
2023-04-02T05:52:53.797Z,98889.91
2023-04-02T05:55:35.073Z,98878.00
2023-04-02T05:58:33.686Z,98874.81
2023-04-02T06:01:07.850Z,98887.88
2023-04-02T06:03:46.354Z,98880.94
2023-04-02T06:06:23.139Z,98869.47
2023-04-02T06:08:56.559Z,98887.19
2023-04-02T06:11:28.654Z,98881.81
2023-04-02T06:13:57.976Z,98883.28
2023-04-02T06:16:27.565Z,98877.13
2023-04-02T06:18:55.972Z,98888.34
2023-04-02T06:21:23.816Z,98882.97
2023-04-02T06:23:57.164Z,98875.34
2023-04-02T06:26:32.761Z,98874.09
2023-04-02T06:29:05.900Z,98876.38
2023-04-02T06:31:39.118Z,98877.81
2023-04-02T06:34:15.964Z,98875.66
2023-04-02T06:36:50.428Z,98870.81
2023-04-02T06:39:22.871Z,98855.19
2023-04-02T06:41:59.935Z,98874.66
2023-04-02T06:44:46.401Z,98883.31
2023-04-02T06:47:22.790Z,98885.88
2023-04-02T06:49:55.157Z,98888.91
2023-04-02T06:52:26.307Z,98888.59
2023-04-02T06:54:53.711Z,98890.22
2023-04-02T06:57:23.151Z,98889.41
2023-04-02T06:59:52.183Z,98883.75
2023-04-02T07:02:28.681Z,98893.78
2023-04-02T07:05:01.860Z,98884.19
2023-04-02T07:07:30.595Z,98890.44
2023-04-02T07:09:58.956Z,98905.72
2023-04-02T07:12:27.849Z,98898.88
2023-04-02T07:14:56.018Z,98905.41
2023-04-02T07:17:24.295Z,98907.00
2023-04-02T07:19:51.753Z,98899.38
2023-04-02T07:22:22.276Z,98906.72
2023-04-02T07:24:56.516Z,98915.16
2023-04-02T07:27:23.878Z,98906.44
2023-04-02T07:29:52.543Z,98903.97
2023-04-02T07:32:20.035Z,98898.28
2023-04-02T07:34:47.526Z,98908.97
2023-04-02T07:37:15.217Z,98901.47
2023-04-02T07:39:42.697Z,98919.00
2023-04-02T07:42:10.423Z,98917.41
2023-04-02T07:44:37.899Z,98919.94
2023-04-02T07:47:07.538Z,98925.84
2023-04-02T07:49:35.138Z,98925.97
2023-04-02T07:52:02.408Z,98925.03
2023-04-02T07:54:30.498Z,98922.50
2023-04-02T07:56:57.778Z,98932.81
2023-04-02T07:59:25.217Z,98929.19
2023-04-02T08:01:53.182Z,98924.38
2023-04-02T08:04:23.299Z,98934.13
2023-04-02T08:06:50.672Z,98931.75
2023-04-02T08:09:20.455Z,98939.50
2023-04-02T08:11:48.124Z,98930.44
2023-04-02T08:14:15.707Z,98933.13
2023-04-02T08:16:48.159Z,98939.63
2023-04-02T08:19:15.873Z,98937.41
2023-04-02T08:21:45.104Z,98933.38
2023-04-02T08:24:12.594Z,98941.44
2023-04-02T08:26:39.985Z,98929.97
2023-04-02T08:29:07.523Z,98931.06
2023-04-02T08:31:34.898Z,98932.81
2023-04-02T08:34:02.581Z,98930.09
2023-04-02T08:36:33.851Z,98929.97
2023-04-02T08:39:02.824Z,98931.72
2023-04-02T08:41:36.819Z,98935.06
2023-04-02T08:44:16.542Z,98936.97
2023-04-02T08:46:48.594Z,98936.00
2023-04-02T08:49:20.207Z,98943.94
2023-04-02T08:51:47.830Z,98940.06
2023-04-02T08:54:22.710Z,98940.22
2023-04-02T08:56:55.733Z,98921.41
2023-04-02T08:59:30.965Z,98940.44
2023-04-02T09:02:15.681Z,98937.22
2023-04-02T09:04:43.348Z,98938.69
2023-04-02T09:07:13.851Z,98936.53
2023-04-02T09:09:44.003Z,98939.56
2023-04-02T09:12:18.576Z,98932.25
2023-04-02T09:14:59.570Z,98941.19
2023-04-02T09:17:27.913Z,98938.34
2023-04-02T09:19:57.947Z,98942.50
2023-04-02T09:22:27.332Z,98929.31
2023-04-02T09:24:57.848Z,98939.38
2023-04-02T09:27:27.692Z,98935.22
2023-04-02T09:30:00.981Z,98949.38
2023-04-02T09:32:40.625Z,98945.09
2023-04-02T09:35:24.467Z,98943.34
2023-04-02T09:38:16.420Z,98953.09
2023-04-02T09:40:50.637Z,98941.41
2023-04-02T09:43:21.276Z,98946.84
2023-04-02T09:45:58.632Z,98952.44
2023-04-02T09:48:30.438Z,98934.19
2023-04-02T09:51:12.995Z,98939.63
2023-04-02T09:53:42.689Z,98941.38
2023-04-02T09:56:14.821Z,98947.28
2023-04-02T09:58:44.491Z,98946.03
2023-04-02T10:01:29.560Z,98937.13
2023-04-02T10:03:59.263Z,98947.03
2023-04-02T10:06:29.168Z,98937.50
2023-04-02T10:08:57.131Z,98938.81
2023-04-02T10:11:36.639Z,98934.56
2023-04-02T10:14:20.522Z,98940.25
2023-04-02T10:16:52.248Z,98932.28
2023-04-02T10:19:26.797Z,98934.53
2023-04-02T10:21:54.589Z,98938.88
2023-04-02T10:24:21.965Z,98935.63
2023-04-02T10:26:57.404Z,98939.22
2023-04-02T10:29:42.218Z,98941.84
2023-04-02T10:32:15.091Z,98937.41
2023-04-02T10:34:47.806Z,98928.03
2023-04-02T10:37:53.106Z,98947.22
2023-04-02T10:40:27.159Z,98932.03
2023-04-02T10:43:10.282Z,98939.84
2023-04-02T10:45:46.668Z,98944.13
2023-04-02T10:48:23.413Z,98937.75
2023-04-02T10:50:57.648Z,98944.78
2023-04-02T10:53:33.353Z,98940.91
2023-04-02T10:56:08.891Z,98940.31
2023-04-02T10:58:42.955Z,98942.09
2023-04-02T11:01:17.144Z,98948.31
2023-04-02T11:03:48.786Z,98928.22
2023-04-02T11:06:21.448Z,98928.75
2023-04-02T11:08:50.650Z,98928.13
2023-04-02T11:11:21.588Z,98931.50
2023-04-02T11:13:57.940Z,98930.88
2023-04-02T11:16:25.557Z,98923.38
2023-04-02T11:19:32.564Z,98930.25
2023-04-02T11:22:02.686Z,98922.75
2023-04-02T11:24:38.965Z,98927.19
2023-04-02T11:27:15.126Z,98918.75
2023-04-02T11:29:47.535Z,98930.41
2023-04-02T11:32:33.471Z,98946.34
2023-04-02T11:35:23.850Z,98933.91
2023-04-02T11:37:51.450Z,98935.03
2023-04-02T11:40:43.046Z,98933.44
2023-04-02T11:43:47.812Z,98937.13
2023-04-02T11:46:45.683Z,98941.72
2023-04-02T11:49:56.624Z,98927.66
2023-04-02T11:52:27.223Z,98932.13
2023-04-02T11:55:01.334Z,98929.75
2023-04-02T11:57:51.397Z,98935.63
2023-04-02T12:00:42.266Z,98933.09
2023-04-02T12:03:41.486Z,98935.13
2023-04-02T12:06:19.059Z,98941.66
2023-04-02T12:08:57.537Z,98923.16
2023-04-02T12:11:35.291Z,98937.50
2023-04-02T12:14:07.306Z,98927.78
2023-04-02T12:16:35.584Z,98922.81
2023-04-02T12:19:09.410Z,98918.69
2023-04-02T12:21:38.960Z,98921.09
2023-04-02T12:24:14.454Z,98933.19
2023-04-02T12:26:43.055Z,98937.34
2023-04-02T12:29:22.180Z,98929.97
2023-04-02T12:31:49.894Z,98931.69
2023-04-02T12:34:20.190Z,98910.13
2023-04-02T12:36:55.843Z,98933.09
2023-04-02T12:39:25.831Z,98923.34
2023-04-02T12:41:55.228Z,98924.16
2023-04-02T12:44:24.034Z,98932.94
2023-04-02T12:46:52.561Z,98929.94
2023-04-02T12:49:39.991Z,98928.97
2023-04-02T12:52:10.174Z,98939.84
2023-04-02T12:54:46.154Z,98926.09
2023-04-02T12:57:31.564Z,98936.81
2023-04-02T13:00:00.505Z,98938.25
2023-04-02T13:02:30.055Z,98931.84
2023-04-02T13:05:01.694Z,98915.75
2023-04-02T13:07:32.677Z,98930.38
2023-04-02T13:10:02.260Z,98940.78
2023-04-02T13:12:37.302Z,98926.88
2023-04-02T13:15:07.864Z,98922.56
2023-04-02T13:17:41.010Z,98935.81
2023-04-02T13:20:32.538Z,98934.19
2023-04-02T13:23:01.526Z,98930.53
2023-04-02T13:25:31.442Z,98929.09
2023-04-02T13:27:59.318Z,98930.97
2023-04-02T13:30:28.833Z,98946.34
2023-04-02T13:32:56.669Z,98940.28
2023-04-02T13:35:24.069Z,98937.56
2023-04-02T13:37:52.808Z,98938.81
2023-04-02T13:40:20.246Z,98937.41
2023-04-02T13:42:50.098Z,98935.66
2023-04-02T13:45:24.605Z,98927.31
2023-04-02T13:47:52.303Z,98932.91
2023-04-02T13:50:21.532Z,98933.53
2023-04-02T13:52:50.693Z,98930.31
2023-04-02T13:55:22.891Z,98930.63
2023-04-02T13:57:50.589Z,98941.16
2023-04-02T14:00:20.025Z,98937.78
2023-04-02T14:02:51.041Z,98940.81
2023-04-02T14:05:32.030Z,98939.84
2023-04-02T14:08:09.466Z,98932.16
2023-04-02T14:11:01.957Z,98937.56
2023-04-02T14:13:51.849Z,98935.03
2023-04-02T14:16:36.772Z,98934.66
2023-04-02T14:19:18.054Z,98943.94
2023-04-02T14:22:01.020Z,98942.53
2023-04-02T14:24:36.052Z,98942.53
2023-04-02T14:27:24.494Z,98946.84
2023-04-02T14:29:58.453Z,98941.91
2023-04-02T14:32:33.232Z,98943.66
2023-04-02T14:35:08.589Z,98944.00
2023-04-02T14:37:42.053Z,98939.19
2023-04-02T14:40:19.489Z,98948.63
2023-04-02T14:42:57.456Z,98934.38
2023-04-02T14:45:37.820Z,98934.66
2023-04-02T14:48:12.749Z,98937.88
2023-04-02T14:50:42.029Z,98940.44
2023-04-02T14:53:17.735Z,98941.03
2023-04-02T14:55:48.543Z,98943.94
2023-04-02T14:58:22.406Z,98938.81
2023-04-02T15:00:57.339Z,98947.47
2023-04-02T15:03:28.516Z,98918.72
2023-04-02T15:06:00.144Z,98941.75
2023-04-02T15:08:30.580Z,98940.94
2023-04-02T15:11:06.497Z,98941.44
2023-04-02T15:13:39.924Z,98949.13
2023-04-02T15:16:11.786Z,98942.41
2023-04-02T15:18:39.201Z,98937.63
2023-04-02T15:21:29.461Z,98928.38
2023-04-02T15:24:02.442Z,98938.59
2023-04-02T15:26:39.239Z,98939.53
2023-04-02T15:29:28.373Z,98937.94
2023-04-02T15:32:03.601Z,98937.03
2023-04-02T15:34:34.965Z,98945.63
2023-04-02T15:37:11.419Z,98940.06
2023-04-02T15:39:51.734Z,98931.13
2023-04-02T15:42:23.890Z,98947.44
2023-04-02T15:45:16.282Z,98925.13
2023-04-02T15:47:54.460Z,98947.94
2023-04-02T15:50:47.106Z,98947.94
2023-04-02T15:53:39.342Z,98957.53
2023-04-02T15:56:20.054Z,98951.78
2023-04-02T15:58:59.403Z,98960.41
2023-04-02T16:01:35.267Z,98952.91
2023-04-02T16:04:19.648Z,98961.38
2023-04-02T16:07:01.735Z,98944.31
2023-04-02T16:09:34.158Z,98978.19
2023-04-02T16:12:12.516Z,98989.22
2023-04-02T16:14:42.528Z,98980.13
2023-04-02T16:17:25.060Z,98984.75
2023-04-02T16:19:56.872Z,98973.72
2023-04-02T16:22:27.835Z,98978.84
2023-04-02T16:25:00.192Z,98974.38
2023-04-02T16:27:30.724Z,98989.88
2023-04-02T16:30:20.859Z,98989.41
2023-04-02T16:33:09.864Z,98988.41
2023-04-02T16:35:45.626Z,98988.75
2023-04-02T16:38:30.624Z,98992.75
2023-04-02T16:41:08.756Z,98988.59
2023-04-02T16:43:49.638Z,98994.81
2023-04-02T16:46:38.106Z,98997.56
2023-04-02T16:49:22.288Z,99002.69
2023-04-02T16:51:59.655Z,99006.50
2023-04-02T16:54:36.284Z,98999.31
2023-04-02T16:57:18.944Z,99009.38
2023-04-02T16:59:57.589Z,99001.06
2023-04-02T17:02:40.028Z,99004.63
2023-04-02T17:05:18.335Z,99004.47
2023-04-02T17:07:54.199Z,99008.44
2023-04-02T17:10:30.292Z,99011.16
2023-04-02T17:13:16.311Z,99003.00
2023-04-02T17:15:50.477Z,99019.94
2023-04-02T17:18:20.230Z,99022.38
2023-04-02T17:20:49.253Z,99016.75
2023-04-02T17:23:19.041Z,99018.03
2023-04-02T17:25:50.907Z,99026.66
2023-04-02T17:28:25.630Z,99018.38
2023-04-02T17:30:56.293Z,99017.41
2023-04-02T17:33:27.004Z,99025.38
2023-04-02T17:36:12.127Z,99027.00
2023-04-02T17:38:49.590Z,99011.34
2023-04-02T17:41:21.383Z,99014.84
2023-04-02T17:43:56.063Z,99021.25
2023-04-02T17:46:34.572Z,99034.00
2023-04-02T17:49:13.312Z,99033.22
2023-04-02T17:51:49.203Z,99026.97
2023-04-02T17:54:31.240Z,99030.66
2023-04-02T17:57:24.205Z,99029.53
2023-04-02T18:00:10.825Z,99021.22
2023-04-02T18:03:08.201Z,99039.13
2023-04-02T18:05:42.906Z,99035.44
2023-04-02T18:08:22.742Z,99046.28
2023-04-02T18:11:04.624Z,99040.22
2023-04-02T18:13:35.830Z,99043.59
2023-04-02T18:16:23.670Z,99041.38
2023-04-02T18:19:06.119Z,99044.88
2023-04-02T18:21:43.235Z,99050.16
2023-04-02T18:24:33.592Z,99054.47
2023-04-02T18:27:16.096Z,99046.78
2023-04-02T18:29:51.366Z,99062.13
2023-04-02T18:32:47.208Z,99060.38
2023-04-02T18:35:23.310Z,99048.69
2023-04-02T18:38:11.732Z,99057.50
2023-04-02T18:40:43.917Z,99057.63
2023-04-02T18:43:26.342Z,99051.91
2023-04-02T18:46:00.358Z,99054.59
2023-04-02T18:48:39.354Z,99048.03
2023-04-02T18:51:09.489Z,99053.97
2023-04-02T18:53:37.427Z,99063.56
2023-04-02T18:56:12.058Z,99064.81
2023-04-02T18:58:46.922Z,99062.41
2023-04-02T19:01:18.548Z,99065.28
2023-04-02T19:03:51.311Z,99065.13
2023-04-02T19:06:22.311Z,99058.75
2023-04-02T19:08:55.043Z,99062.72
2023-04-02T19:11:31.528Z,99059.22
2023-04-02T19:14:01.384Z,99062.72
2023-04-02T19:16:45.730Z,99063.66
2023-04-02T19:19:19.076Z,99064.13
2023-04-02T19:22:01.668Z,99070.19
2023-04-02T19:24:40.114Z,99069.41
2023-04-02T19:27:18.832Z,99071.00
2023-04-02T19:29:59.925Z,99064.31
2023-04-02T19:32:38.400Z,99055.81
2023-04-02T19:35:17.568Z,99062.06
2023-04-02T19:37:55.053Z,99060.16
2023-04-02T19:40:32.310Z,99074.97
2023-04-02T19:43:01.232Z,99073.19
2023-04-02T19:45:32.881Z,99067.44
2023-04-02T19:48:03.677Z,99076.38
2023-04-02T19:50:31.103Z,99066.47
2023-04-02T19:52:58.465Z,99069.31
2023-04-02T19:55:27.044Z,99071.09
2023-04-02T19:58:08.405Z,99072.84
2023-04-02T20:00:41.850Z,99080.50
2023-04-02T20:03:09.456Z,99075.69
2023-04-02T20:05:37.092Z,99075.69
2023-04-02T20:08:04.867Z,99070.91
2023-04-02T20:10:32.206Z,99081.13
2023-04-02T20:13:01.162Z,99082.72
2023-04-02T20:15:28.434Z,99081.13
2023-04-02T20:17:57.145Z,99076.81
2023-04-02T20:20:25.006Z,99091.31
2023-04-02T20:22:52.355Z,99090.03
2023-04-02T20:25:19.553Z,99088.44
2023-04-02T20:27:46.841Z,99089.53
2023-04-02T20:30:14.634Z,99079.50
2023-04-02T20:32:42.314Z,99081.72
2023-04-02T20:35:11.287Z,99086.03
2023-04-02T20:37:41.038Z,99083.31
2023-04-02T20:40:10.217Z,99096.09
2023-04-02T20:42:37.507Z,99089.56
2023-04-02T20:45:06.374Z,99087.16
2023-04-02T20:47:34.113Z,99086.38
2023-04-02T20:50:01.679Z,99081.91
2023-04-02T20:52:33.127Z,99080.31
2023-04-02T20:55:01.601Z,99088.13
2023-04-02T20:57:36.995Z,99087.16
2023-04-02T21:00:06.316Z,99079.50
2023-04-02T21:02:33.746Z,99079.50
2023-04-02T21:05:01.373Z,99076.16
2023-04-02T21:07:28.785Z,99074.41
2023-04-02T21:09:56.558Z,99080.31
2023-04-02T21:12:25.143Z,99076.34
2023-04-02T21:14:58.779Z,99077.91
2023-04-02T21:17:27.358Z,99083.81
2023-04-02T21:19:55.041Z,99091.66
2023-04-02T21:22:22.770Z,99094.19
2023-04-02T21:24:50.069Z,99089.88
2023-04-02T21:27:17.470Z,99087.03
2023-04-02T21:29:44.792Z,99092.28
2023-04-02T21:32:21.271Z,99085.06
2023-04-02T21:34:49.348Z,99091.78
2023-04-02T21:37:16.560Z,99089.09
2023-04-02T21:39:43.842Z,99098.19
2023-04-02T21:42:11.481Z,99091.47
2023-04-02T21:44:38.769Z,99093.22
2023-04-02T21:47:06.291Z,99093.22
2023-04-02T21:49:35.397Z,99093.22
2023-04-02T21:52:02.685Z,99097.53
2023-04-02T21:54:30.612Z,99098.84
2023-04-02T21:56:58.078Z,99098.03
2023-04-02T21:59:25.663Z,99106.31
2023-04-02T22:01:54.470Z,99101.22
2023-04-02T22:04:23.773Z,99099.78
2023-04-02T22:06:53.035Z,99095.47
2023-04-02T22:09:23.218Z,99096.75
2023-04-02T22:11:54.560Z,99096.09
2023-04-02T22:14:22.463Z,99094.19
2023-04-02T22:16:49.909Z,99096.75
2023-04-02T22:19:17.602Z,99100.88
2023-04-02T22:21:46.086Z,99097.69
2023-04-02T22:24:18.775Z,99098.44
2023-04-02T22:26:46.412Z,99093.44
2023-04-02T22:29:14.493Z,99099.00
2023-04-02T22:31:42.107Z,99096.91
2023-04-02T22:34:09.782Z,99100.59
2023-04-02T22:36:37.291Z,99095.13
2023-04-02T22:39:07.129Z,99092.69
2023-04-02T22:41:36.348Z,99102.22
2023-04-02T22:44:03.774Z,99099.34
2023-04-02T22:46:31.748Z,99100.84
2023-04-02T22:48:59.382Z,99099.25
2023-04-02T22:51:28.028Z,99098.38
2023-04-02T22:53:56.632Z,99095.66
2023-04-02T22:56:28.873Z,99086.63
2023-04-02T22:58:57.814Z,99095.06
2023-04-02T23:01:29.058Z,99103.03
2023-04-02T23:03:56.472Z,99103.28
2023-04-02T23:06:26.562Z,99099.31
2023-04-02T23:08:54.044Z,99091.31
2023-04-02T23:11:22.702Z,99092.91
2023-04-02T23:13:52.703Z,99088.25
2023-04-02T23:16:22.835Z,99096.09
2023-04-02T23:18:51.023Z,99095.03
2023-04-02T23:21:19.788Z,99095.81
2023-04-02T23:23:48.367Z,99091.81
2023-04-02T23:26:19.599Z,99091.31
2023-04-02T23:28:47.538Z,99087.16
2023-04-02T23:31:16.951Z,99095.09
2023-04-02T23:33:46.042Z,99090.59
2023-04-02T23:36:22.734Z,99094.38
2023-04-02T23:38:55.245Z,99088.25
2023-04-02T23:41:24.266Z,99108.00
2023-04-02T23:43:51.837Z,99095.81
2023-04-02T23:46:19.531Z,99099.63
2023-04-02T23:48:50.607Z,99106.59
2023-04-02T23:51:18.834Z,99097.63
2023-04-02T23:53:46.237Z,99101.25
2023-04-02T23:56:13.702Z,99091.25
2023-04-02T23:58:41.109Z,99103.00
